createdAt,value
2024-01-14T00:01:06.465Z,9.80
2024-01-14T00:04:18.348Z,10.70
2024-01-14T00:11:55.667Z,12.20
2024-01-14T00:19:06.809Z,11.20
2024-01-14T00:22:19.040Z,11.00
2024-01-14T00:25:31.541Z,12.80
2024-01-14T00:28:21.143Z,11.80
2024-01-14T00:31:32.850Z,12.10
2024-01-14T00:34:45.867Z,13.40
2024-01-14T00:38:01.322Z,13.00
2024-01-14T00:41:13.429Z,11.70
2024-01-14T00:44:27.937Z,12.40
2024-01-14T00:47:42.265Z,12.90
2024-01-14T00:50:54.208Z,22.30
2024-01-14T00:54:05.373Z,22.20
2024-01-14T00:57:16.523Z,22.10
2024-01-14T01:00:28.046Z,19.40
2024-01-14T01:03:23.763Z,19.00
2024-01-14T01:06:34.972Z,16.50
2024-01-14T01:09:02.927Z,17.90
2024-01-14T01:16:33.298Z,16.10
2024-01-14T01:19:47.604Z,12.20
2024-01-14T01:23:02.081Z,12.80
2024-01-14T01:25:54.522Z,15.10
2024-01-14T01:29:24.700Z,14.40
2024-01-14T01:32:54.955Z,11.70
2024-01-14T01:36:07.954Z,15.40
2024-01-14T01:39:19.950Z,12.90
2024-01-14T01:42:32.197Z,15.80
2024-01-14T01:45:43.424Z,12.30
2024-01-14T01:48:55.846Z,13.10
2024-01-14T01:52:07.455Z,16.30
2024-01-14T01:55:21.882Z,13.30
2024-01-14T01:58:36.016Z,11.10
2024-01-14T02:01:47.378Z,13.10
2024-01-14T02:04:43.140Z,12.70
2024-01-14T02:07:39.751Z,13.20
2024-01-14T02:10:50.969Z,14.90
2024-01-14T02:14:02.427Z,12.90
2024-01-14T02:17:15.955Z,15.50
2024-01-14T02:20:27.064Z,14.60
2024-01-14T02:23:38.327Z,13.70
2024-01-14T02:26:52.599Z,13.50
2024-01-14T02:29:21.287Z,12.60
2024-01-14T02:31:49.098Z,13.40
2024-01-14T02:34:37.543Z,14.80
2024-01-14T02:37:51.964Z,12.50
2024-01-14T02:40:53.663Z,13.10
2024-01-14T02:44:23.530Z,14.10
2024-01-14T02:47:35.012Z,12.60
2024-01-14T02:50:47.117Z,13.70
2024-01-14T02:53:58.403Z,13.50
2024-01-14T02:57:09.740Z,13.70
2024-01-14T03:00:22.431Z,15.20
2024-01-14T03:02:50.126Z,14.30
2024-01-14T03:08:29.651Z,14.20
2024-01-14T03:11:43.863Z,13.70
2024-01-14T03:14:36.769Z,13.90
2024-01-14T03:17:48.470Z,13.30
2024-01-14T03:20:53.459Z,13.20
2024-01-14T03:24:23.202Z,13.90
2024-01-14T03:28:02.360Z,13.50
2024-01-14T03:31:16.973Z,13.10
2024-01-14T03:34:28.106Z,13.10
2024-01-14T03:37:40.061Z,13.80
2024-01-14T03:40:51.165Z,10.80
2024-01-14T03:43:19.084Z,13.30
2024-01-14T03:46:30.409Z,12.00
2024-01-14T03:49:41.763Z,12.80
2024-01-14T03:52:53.007Z,11.00
2024-01-14T03:55:55.597Z,11.60
2024-01-14T04:02:41.485Z,11.40
2024-01-14T04:14:30.862Z,12.20
2024-01-14T04:17:41.970Z,11.40
2024-01-14T04:20:54.450Z,11.40
2024-01-14T04:24:05.708Z,12.00
2024-01-14T04:27:17.198Z,11.30
2024-01-14T04:30:28.801Z,11.50
2024-01-14T04:33:40.436Z,12.50
2024-01-14T04:36:08.468Z,11.60
2024-01-14T04:43:44.295Z,11.80
2024-01-14T04:51:14.206Z,12.00
2024-01-14T04:54:18.934Z,12.10
2024-01-14T05:01:20.862Z,13.10
2024-01-14T05:04:31.892Z,12.50
2024-01-14T05:07:43.396Z,12.90
2024-01-14T05:10:54.467Z,13.30
2024-01-14T05:14:05.801Z,12.20
2024-01-14T05:20:54.956Z,13.00
2024-01-14T05:24:24.876Z,11.90
2024-01-14T05:27:38.441Z,13.10
2024-01-14T05:30:49.860Z,12.20
2024-01-14T05:34:02.474Z,11.20
2024-01-14T05:37:16.671Z,11.50
2024-01-14T05:40:27.958Z,13.00
2024-01-14T05:42:55.559Z,11.90
2024-01-14T05:57:29.580Z,12.00
2024-01-14T06:00:16.390Z,11.00
2024-01-14T06:03:28.819Z,11.50
2024-01-14T06:06:03.029Z,11.90
2024-01-14T06:09:12.013Z,11.70
2024-01-14T06:11:41.418Z,11.50
2024-01-14T06:14:50.184Z,10.40
2024-01-14T06:17:18.266Z,12.00
2024-01-14T06:19:49.194Z,11.60
2024-01-14T06:23:01.154Z,10.90
2024-01-14T06:26:06.835Z,11.70
2024-01-14T06:29:22.572Z,11.60
2024-01-14T06:32:50.545Z,10.10
2024-01-14T06:35:38.067Z,11.60
2024-01-14T06:38:50.484Z,10.10
2024-01-14T06:42:02.696Z,10.60
2024-01-14T06:44:30.452Z,10.50
2024-01-14T06:51:05.372Z,14.50
2024-01-14T06:54:19.780Z,10.80
2024-01-14T06:57:33.760Z,11.30
2024-01-14T07:00:46.270Z,10.20
2024-01-14T07:03:58.269Z,9.80
2024-01-14T07:07:10.509Z,10.40
2024-01-14T07:09:50.773Z,11.80
2024-01-14T07:19:37.513Z,10.70
2024-01-14T07:22:49.612Z,10.70
2024-01-14T07:26:02.211Z,10.70
2024-01-14T07:29:14.484Z,11.30
2024-01-14T07:31:42.530Z,11.50
2024-01-14T07:34:51.347Z,11.40
2024-01-14T07:38:03.536Z,11.20
2024-01-14T07:41:35.107Z,10.40
2024-01-14T07:44:47.257Z,10.10
2024-01-14T07:47:59.550Z,10.20
2024-01-14T07:50:27.290Z,10.00
2024-01-14T07:57:31.375Z,10.20
2024-01-14T08:00:54.470Z,10.50
2024-01-14T08:04:12.628Z,10.00
2024-01-14T08:07:25.186Z,10.50
2024-01-14T08:10:38.037Z,9.80
2024-01-14T08:13:51.180Z,10.70
2024-01-14T08:16:19.248Z,11.20
2024-01-14T08:19:37.376Z,10.20
2024-01-14T08:26:19.354Z,9.20
2024-01-14T08:29:50.059Z,9.80
2024-01-14T08:37:09.914Z,9.70
2024-01-14T08:39:51.941Z,9.70
2024-01-14T08:42:45.658Z,8.10
2024-01-14T08:45:57.396Z,8.40
2024-01-14T08:49:11.902Z,8.90
2024-01-14T08:52:24.014Z,8.90
2024-01-14T08:55:36.274Z,8.60
2024-01-14T08:58:49.241Z,8.40
2024-01-14T09:05:50.373Z,6.90
2024-01-14T09:09:05.854Z,7.40
2024-01-14T09:12:20.961Z,7.10
2024-01-14T09:15:32.905Z,7.00
2024-01-14T09:18:01.011Z,6.10
2024-01-14T09:21:16.550Z,6.60
2024-01-14T09:24:31.697Z,7.00
2024-01-14T09:27:43.086Z,6.70
2024-01-14T09:30:55.101Z,6.90
2024-01-14T09:34:07.319Z,6.80
2024-01-14T09:37:19.154Z,7.20
2024-01-14T09:39:50.082Z,7.30
2024-01-14T09:43:02.482Z,7.40
2024-01-14T09:46:26.324Z,7.20
2024-01-14T09:49:39.597Z,8.30
2024-01-14T09:52:07.579Z,11.30
2024-01-14T09:55:19.369Z,15.40
2024-01-14T10:02:51.716Z,18.60
2024-01-14T10:10:23.592Z,8.00
2024-01-14T10:17:05.517Z,9.20
2024-01-14T10:19:55.961Z,7.80
2024-01-14T10:23:10.940Z,6.80
2024-01-14T10:26:18.924Z,7.00
2024-01-14T10:29:30.777Z,7.70
2024-01-14T10:32:14.621Z,7.80
2024-01-14T10:34:54.172Z,7.20
2024-01-14T10:41:58.252Z,6.80
2024-01-14T10:49:02.987Z,10.40
2024-01-14T10:52:30.939Z,9.50
2024-01-14T10:55:45.826Z,8.80
2024-01-14T10:58:57.737Z,10.30
2024-01-14T11:02:10.095Z,10.40
2024-01-14T11:04:50.295Z,10.30
2024-01-14T11:08:05.112Z,9.50
2024-01-14T11:11:16.892Z,9.60
2024-01-14T11:14:29.200Z,9.30
2024-01-14T11:17:40.086Z,7.80
2024-01-14T11:21:06.990Z,8.40
2024-01-14T11:24:30.570Z,9.20
2024-01-14T11:32:02.388Z,10.70
2024-01-14T11:35:14.211Z,9.80
2024-01-14T11:38:26.288Z,9.40
2024-01-14T11:41:39.031Z,10.20
2024-01-14T11:44:51.001Z,8.70
2024-01-14T11:48:02.747Z,9.40
2024-01-14T11:51:15.130Z,9.50
2024-01-14T11:54:27.113Z,9.30
2024-01-14T11:57:39.283Z,8.70
2024-01-14T12:00:51.644Z,8.20
2024-01-14T12:03:38.667Z,8.80
2024-01-14T12:10:39.192Z,11.00
2024-01-14T12:13:41.549Z,9.40
2024-01-14T12:16:54.197Z,10.00
2024-01-14T12:19:57.335Z,8.60
2024-01-14T12:27:17.737Z,9.30
2024-01-14T12:30:31.812Z,9.10
2024-01-14T12:33:45.573Z,10.90
2024-01-14T12:36:57.517Z,11.10
2024-01-14T12:40:31.056Z,13.10
2024-01-14T12:47:33.796Z,13.50
2024-01-14T12:50:48.631Z,14.90
2024-01-14T12:54:00.436Z,11.60
2024-01-14T12:57:19.945Z,12.60
2024-01-14T13:00:40.820Z,13.40
2024-01-14T13:03:53.145Z,12.90
2024-01-14T13:07:11.615Z,13.10
2024-01-14T13:14:12.789Z,11.60
2024-01-14T13:21:13.173Z,12.90
2024-01-14T13:24:27.768Z,14.00
2024-01-14T13:27:41.948Z,12.30
2024-01-14T13:30:55.192Z,11.70
2024-01-14T13:33:23.114Z,12.20
2024-01-14T13:36:41.713Z,10.60
2024-01-14T13:39:56.481Z,9.90
2024-01-14T13:43:08.534Z,10.60
2024-01-14T13:46:20.408Z,11.30
2024-01-14T13:49:33.450Z,10.80
2024-01-14T13:52:45.561Z,11.40
2024-01-14T14:00:06.031Z,12.40
2024-01-14T14:03:37.366Z,11.70
2024-01-14T14:06:53.248Z,12.30
2024-01-14T14:09:54.950Z,13.00
2024-01-14T14:12:45.082Z,10.90
2024-01-14T14:15:57.659Z,10.80
2024-01-14T14:23:06.458Z,10.40
2024-01-14T14:30:07.352Z,11.50
2024-01-14T14:33:20.417Z,11.50
2024-01-14T14:36:32.281Z,10.60
2024-01-14T14:39:44.170Z,10.80
2024-01-14T14:42:56.652Z,11.20
2024-01-14T14:46:08.597Z,10.80
2024-01-14T14:49:28.609Z,11.40
2024-01-14T14:52:43.012Z,11.70
2024-01-14T14:55:55.217Z,11.40
2024-01-14T14:58:54.422Z,11.60
2024-01-14T15:02:08.273Z,11.20
2024-01-14T15:09:10.274Z,12.80
2024-01-14T15:16:13.064Z,11.20
2024-01-14T15:19:26.392Z,11.20
2024-01-14T15:22:38.815Z,10.80
2024-01-14T15:25:50.747Z,11.80
2024-01-14T15:29:02.423Z,10.80
2024-01-14T15:32:14.817Z,10.10
2024-01-14T15:35:30.690Z,10.20
2024-01-14T15:38:46.589Z,10.30
2024-01-14T15:41:58.716Z,10.00
2024-01-14T15:45:11.443Z,10.60
2024-01-14T15:48:23.458Z,11.60
2024-01-14T15:51:35.280Z,12.10
2024-01-14T15:55:06.464Z,10.50
2024-01-14T16:02:41.923Z,12.10
2024-01-14T16:05:55.161Z,11.60
2024-01-14T16:08:25.892Z,11.70
2024-01-14T16:11:37.901Z,10.70
2024-01-14T16:14:50.236Z,10.40
2024-01-14T16:18:02.090Z,10.70
2024-01-14T16:24:29.017Z,11.80
2024-01-14T16:27:41.949Z,10.50
2024-01-14T16:31:01.812Z,10.70
2024-01-14T16:34:22.407Z,11.20
2024-01-14T16:37:34.981Z,10.90
2024-01-14T16:41:07.045Z,10.80
2024-01-14T16:44:38.703Z,12.00
2024-01-14T16:47:54.596Z,11.90
2024-01-14T16:55:26.418Z,11.00
2024-01-14T16:58:39.351Z,11.20
2024-01-14T17:01:53.034Z,11.20
2024-01-14T17:04:52.428Z,11.10
2024-01-14T17:08:04.787Z,10.40
2024-01-14T17:15:36.372Z,12.10
2024-01-14T17:18:48.680Z,12.50
2024-01-14T17:22:02.168Z,11.70
2024-01-14T17:25:13.696Z,12.10
2024-01-14T17:28:26.061Z,11.90
2024-01-14T17:31:38.484Z,11.30
2024-01-14T17:34:51.719Z,11.50
2024-01-14T17:42:23.896Z,11.60
2024-01-14T17:45:39.056Z,11.80
2024-01-14T17:48:55.044Z,11.70
2024-01-14T17:56:28.144Z,10.80
2024-01-14T17:59:07.247Z,11.70
2024-01-14T18:01:35.239Z,12.00
2024-01-14T18:05:06.278Z,12.30
2024-01-14T18:08:37.662Z,11.70
2024-01-14T18:11:49.794Z,11.30
2024-01-14T18:19:01.197Z,10.70
2024-01-14T18:22:13.371Z,11.60
2024-01-14T18:29:17.604Z,11.80
2024-01-14T18:32:29.671Z,11.70
2024-01-14T18:35:43.280Z,11.50
2024-01-14T18:38:56.685Z,10.60
2024-01-14T18:42:09.186Z,10.60
2024-01-14T18:45:21.351Z,11.80
2024-01-14T18:48:33.340Z,12.30
2024-01-14T18:51:48.513Z,11.20
2024-01-14T18:55:00.900Z,11.30
2024-01-14T18:58:13.159Z,12.70
2024-01-14T19:01:25.258Z,11.30
2024-01-14T19:04:37.350Z,11.40
2024-01-14T19:07:49.736Z,11.70
2024-01-14T19:11:01.722Z,11.20
2024-01-14T19:14:13.963Z,11.50
2024-01-14T19:17:31.060Z,12.00
2024-01-14T19:20:44.648Z,11.80
2024-01-14T19:23:56.705Z,11.30
2024-01-14T19:27:08.557Z,10.60
2024-01-14T19:29:54.926Z,11.70
2024-01-14T19:40:15.825Z,11.10
2024-01-14T19:43:15.187Z,11.20
2024-01-14T19:45:55.628Z,10.80
2024-01-14T19:48:24.798Z,11.00
2024-01-14T19:51:54.806Z,10.90
2024-01-14T19:54:53.735Z,10.90
2024-01-14T19:58:06.417Z,11.10
2024-01-14T20:01:17.537Z,10.70
2024-01-14T20:04:28.131Z,10.80
2024-01-14T20:12:18.100Z,10.00
2024-01-14T20:14:51.597Z,11.30
2024-01-14T20:18:03.734Z,10.50
2024-01-14T20:21:15.210Z,9.90
2024-01-14T20:24:30.140Z,9.00
2024-01-14T20:28:00.454Z,10.70
2024-01-14T20:30:33.787Z,11.30
2024-01-14T20:37:52.521Z,10.40
2024-01-14T20:40:20.503Z,10.40
2024-01-14T20:51:56.648Z,10.60
2024-01-14T20:54:23.827Z,10.60
2024-01-14T20:57:32.005Z,10.80
2024-01-14T21:00:42.820Z,11.10
2024-01-14T21:04:12.671Z,10.70
2024-01-14T21:07:25.765Z,11.20
2024-01-14T21:09:56.347Z,10.70
2024-01-14T21:12:24.176Z,10.60
2024-01-14T21:18:14.196Z,10.80
2024-01-14T21:21:26.295Z,10.30
2024-01-14T21:24:37.359Z,10.40
2024-01-14T21:27:48.342Z,11.30
2024-01-14T21:34:04.376Z,10.90
2024-01-14T21:36:39.112Z,11.20
2024-01-14T21:39:53.511Z,10.80
2024-01-14T21:42:26.206Z,11.70
2024-01-14T21:45:37.106Z,10.90
2024-01-14T21:48:48.059Z,10.30
2024-01-14T21:51:53.442Z,10.40
2024-01-14T21:54:29.587Z,11.60
2024-01-14T21:57:50.366Z,11.60
2024-01-14T22:00:17.565Z,10.80
2024-01-14T22:02:44.341Z,11.70
2024-01-14T22:05:52.474Z,10.90
2024-01-14T22:08:25.660Z,10.70
2024-01-14T22:11:36.490Z,10.90
2024-01-14T22:14:50.220Z,11.20
2024-01-14T22:17:51.446Z,11.50
2024-01-14T22:21:22.327Z,10.30
2024-01-14T22:24:33.365Z,10.40
2024-01-14T22:27:45.123Z,10.50
2024-01-14T22:34:56.600Z,10.90
2024-01-14T22:38:08.002Z,10.80
2024-01-14T22:41:18.827Z,11.00
2024-01-14T22:48:37.570Z,10.40
2024-01-14T22:51:48.722Z,9.80
2024-01-14T22:55:02.915Z,10.20
2024-01-14T22:57:29.739Z,9.60
2024-01-14T23:00:47.562Z,10.80
2024-01-14T23:03:26.539Z,9.70
2024-01-14T23:06:37.834Z,8.90
2024-01-14T23:09:10.502Z,9.90
2024-01-14T23:11:43.565Z,8.60
2024-01-14T23:14:42.259Z,9.10
2024-01-14T23:17:08.874Z,8.60
2024-01-14T23:19:41.990Z,9.90
2024-01-14T23:23:13.160Z,9.50
2024-01-14T23:25:40.160Z,9.50
2024-01-14T23:28:06.905Z,8.00
2024-01-14T23:31:05.765Z,9.30
2024-01-14T23:33:38.527Z,9.20
2024-01-14T23:36:50.129Z,8.40
2024-01-14T23:39:25.830Z,8.30
2024-01-14T23:41:58.555Z,9.40
2024-01-14T23:45:09.383Z,9.00
2024-01-14T23:48:20.815Z,8.90
2024-01-14T23:54:42.069Z,8.40
2024-01-14T23:57:41.287Z,8.50
